TIST

Cyril E King Airport

Airport
ICAO code
TIST
IATA Code
STT
Summary
ICAO Region
CARSAM
ICAO Territory
Location

Charlotte Amalie, US Virgin Islands

Serving
St Thomas
Elevation
24 ft
Coordinates
18° 20' 10" N , 64° 58' 20" W
KCC
Metar
TIST 142053Z 13009KT 10SM FEW030 31/26 A2990 RMK AO2 SLP127 T03060256 55008 $

Cyril E. King International Airport is a public airport located 3 km west of the central business district of Charlotte Amalie on the island of St. Thomas in the United States Virgin Islands.

Climatology

Tropical monsoon climate (Köppen climate classification Am)

Runways

Designator Length Width Surface Rops
10/28 2134 46 ASP Yes/Yes

Airport map

Aerial View

SKYbrary Partners:

Safety knowledge contributed by: